Terminal Aerodrome Forecast
Issued by NWS

Home | Current Version | Previous Version | Text Only | Print | Product List | Glossary On
Versions: 1 2 3 4 5 6 7 8 9 10 11 12 13 14 15 16 17 18 19 20 21 22 23 24 25
000
FTUS43 KGRR 251733
TAFAZO
TAF
KAZO 251733Z 2518/2618 26016G22KT 1 1/2SM -SN FEW017 BKN024 OVC030
     FM251900 29016G26KT 2SM -SHSN OVC025
      TEMPO 2519/2523 3/4SM -SHSN OVC015
     FM252300 28016G24KT 3SM -SHSN OVC025
     FM260300 28012KT P6SM OVC035
     FM261100 20008KT P6SM OVC050=

USA.gov is the U.S. government's official web portal to all federal, state and local government web resources and services.